createdAt,value
2023-05-15T00:00:16.473Z,14.38
2023-05-15T00:02:44.978Z,14.46
2023-05-15T00:05:13.168Z,13.99
2023-05-15T00:07:40.875Z,14.44
2023-05-15T00:10:08.843Z,14.26
2023-05-15T00:12:35.484Z,14.03
2023-05-15T00:15:02.387Z,14.39
2023-05-15T00:17:29.026Z,13.97
2023-05-15T00:19:57.939Z,14.33
2023-05-15T00:22:25.005Z,14.13
2023-05-15T00:24:51.838Z,14.17
2023-05-15T00:27:18.420Z,13.89
2023-05-15T00:29:45.005Z,13.97
2023-05-15T00:32:11.608Z,13.84
2023-05-15T00:34:38.188Z,13.94
2023-05-15T00:37:04.901Z,13.97
2023-05-15T00:39:31.456Z,13.89
2023-05-15T00:42:01.908Z,13.71
2023-05-15T00:44:31.313Z,13.58
2023-05-15T00:46:59.540Z,13.89
2023-05-15T00:49:29.570Z,13.52
2023-05-15T00:51:58.124Z,13.54
2023-05-15T00:54:25.430Z,13.74
2023-05-15T00:56:52.794Z,13.94
2023-05-15T00:59:21.321Z,13.88
2023-05-15T01:01:47.974Z,13.89
2023-05-15T01:04:14.580Z,13.86
2023-05-15T01:06:41.259Z,13.90
2023-05-15T01:09:10.054Z,13.95
2023-05-15T01:11:39.059Z,13.92
2023-05-15T01:14:07.594Z,13.93
2023-05-15T01:16:35.189Z,13.82
2023-05-15T01:19:03.022Z,13.89
2023-05-15T01:21:36.399Z,13.83
2023-05-15T01:24:34.098Z,13.79
2023-05-15T01:27:11.148Z,13.78
2023-05-15T01:29:46.828Z,13.78
2023-05-15T01:32:20.460Z,13.66
2023-05-15T01:35:11.978Z,13.66
2023-05-15T01:37:44.616Z,13.56
2023-05-15T01:40:15.264Z,13.52
2023-05-15T01:42:46.810Z,13.10
2023-05-15T01:45:14.083Z,13.48
2023-05-15T01:47:50.373Z,13.28
2023-05-15T01:50:19.518Z,13.54
2023-05-15T01:52:56.766Z,13.47
2023-05-15T01:55:25.746Z,13.33
2023-05-15T01:57:52.855Z,13.38
2023-05-15T02:00:20.752Z,13.33
2023-05-15T02:02:48.759Z,13.10
2023-05-15T02:05:16.677Z,13.39
2023-05-15T02:07:45.469Z,12.76
2023-05-15T02:10:13.946Z,13.14
2023-05-15T02:12:41.717Z,13.35
2023-05-15T02:15:12.180Z,13.30
2023-05-15T02:17:39.636Z,13.01
2023-05-15T02:20:09.217Z,13.20
2023-05-15T02:22:36.129Z,12.98
2023-05-15T02:25:02.727Z,12.80
2023-05-15T02:27:38.758Z,13.12
2023-05-15T02:30:43.066Z,12.94
2023-05-15T02:33:15.384Z,12.94
2023-05-15T02:35:59.073Z,13.03
2023-05-15T02:38:36.365Z,13.03
2023-05-15T02:41:06.026Z,12.68
2023-05-15T02:43:33.133Z,12.94
2023-05-15T02:46:00.481Z,12.92
2023-05-15T02:48:27.505Z,12.97
2023-05-15T02:50:54.270Z,12.58
2023-05-15T02:53:20.983Z,12.56
2023-05-15T02:55:48.157Z,12.88
2023-05-15T02:58:16.738Z,12.85
2023-05-15T03:00:43.401Z,12.79
2023-05-15T03:03:09.928Z,12.82
2023-05-15T03:05:36.501Z,12.77
2023-05-15T03:08:03.089Z,12.76
2023-05-15T03:10:29.700Z,12.65
2023-05-15T03:12:59.785Z,12.77
2023-05-15T03:15:26.784Z,12.62
2023-05-15T03:17:53.811Z,12.36
2023-05-15T03:20:20.575Z,12.57
2023-05-15T03:22:47.204Z,12.25
2023-05-15T03:25:13.981Z,12.59
2023-05-15T03:27:40.636Z,12.64
2023-05-15T03:30:08.004Z,12.54
2023-05-15T03:32:35.016Z,12.57
2023-05-15T03:35:01.637Z,12.57
2023-05-15T03:37:28.655Z,12.48
2023-05-15T03:39:55.289Z,12.23
2023-05-15T03:42:23.824Z,12.42
2023-05-15T03:44:50.884Z,12.41
2023-05-15T03:47:17.567Z,12.52
2023-05-15T03:49:44.202Z,12.44
2023-05-15T03:52:10.846Z,12.52
2023-05-15T03:54:37.708Z,12.35
2023-05-15T03:57:07.946Z,12.42
2023-05-15T03:59:34.697Z,12.46
2023-05-15T04:02:05.087Z,12.53
2023-05-15T04:04:32.836Z,12.62
2023-05-15T04:07:07.257Z,12.60
2023-05-15T04:09:33.980Z,12.74
2023-05-15T04:12:00.654Z,12.63
2023-05-15T04:14:27.244Z,12.16
2023-05-15T04:16:53.837Z,12.75
2023-05-15T04:19:20.474Z,12.65
2023-05-15T04:21:47.124Z,12.77
2023-05-15T04:24:13.674Z,12.47
2023-05-15T04:26:40.352Z,12.88
2023-05-15T04:29:07.041Z,12.92
2023-05-15T04:31:35.253Z,12.87
2023-05-15T04:34:01.993Z,13.07
2023-05-15T04:36:28.647Z,13.10
2023-05-15T04:39:00.242Z,13.14
2023-05-15T04:41:26.979Z,13.23
2023-05-15T04:43:53.511Z,13.34
2023-05-15T04:46:20.609Z,13.04
2023-05-15T04:48:47.207Z,13.11
2023-05-15T04:51:13.798Z,13.43
2023-05-15T04:53:40.341Z,13.50
2023-05-15T04:56:07.148Z,13.52
2023-05-15T04:58:33.685Z,13.57
2023-05-15T05:01:03.559Z,13.68
2023-05-15T05:03:30.644Z,13.70
2023-05-15T05:05:57.193Z,13.77
2023-05-15T05:08:23.798Z,13.82
2023-05-15T05:10:56.100Z,13.84
2023-05-15T05:13:22.718Z,14.04
2023-05-15T05:15:49.350Z,13.68
2023-05-15T05:18:16.033Z,14.22
2023-05-15T05:20:42.750Z,14.13
2023-05-15T05:23:09.347Z,13.86
2023-05-15T05:25:35.971Z,13.96
2023-05-15T05:28:02.663Z,14.56
2023-05-15T05:30:29.230Z,14.63
2023-05-15T05:32:56.082Z,14.73
2023-05-15T05:35:22.974Z,14.80
2023-05-15T05:37:49.712Z,14.91
2023-05-15T05:40:20.432Z,14.98
2023-05-15T05:42:46.980Z,14.97
2023-05-15T05:45:13.628Z,14.84
2023-05-15T05:47:40.235Z,15.26
2023-05-15T05:50:07.630Z,15.30
2023-05-15T05:52:37.199Z,15.02
2023-05-15T05:55:04.620Z,15.46
2023-05-15T05:57:31.448Z,15.40
2023-05-15T05:59:59.064Z,15.62
2023-05-15T06:02:25.742Z,14.66
2023-05-15T06:04:52.465Z,15.63
2023-05-15T06:07:19.276Z,15.81
2023-05-15T06:09:46.573Z,16.01
2023-05-15T06:12:13.158Z,15.81
2023-05-15T06:14:39.782Z,16.24
2023-05-15T06:17:06.620Z,16.27
2023-05-15T06:19:33.254Z,14.98
2023-05-15T06:21:59.807Z,16.42
2023-05-15T06:24:26.967Z,16.42
2023-05-15T06:26:53.727Z,16.46
2023-05-15T06:29:20.401Z,16.42
2023-05-15T06:31:47.213Z,16.24
2023-05-15T06:34:13.862Z,16.62
2023-05-15T06:36:40.733Z,17.06
2023-05-15T06:39:10.781Z,17.03
2023-05-15T06:41:38.160Z,17.20
2023-05-15T06:44:05.362Z,17.24
2023-05-15T06:46:32.021Z,17.35
2023-05-15T06:48:58.635Z,17.47
2023-05-15T06:51:25.306Z,17.62
2023-05-15T06:53:53.280Z,17.07
2023-05-15T06:56:19.818Z,17.70
2023-05-15T06:58:46.500Z,17.82
2023-05-15T07:01:13.295Z,17.73
2023-05-15T07:03:40.218Z,18.15
2023-05-15T07:06:07.121Z,18.25
2023-05-15T07:08:33.664Z,18.42
2023-05-15T07:11:00.413Z,18.42
2023-05-15T07:13:27.036Z,18.39
2023-05-15T07:15:53.589Z,18.41
2023-05-15T07:18:20.216Z,18.89
2023-05-15T07:20:46.884Z,19.06
2023-05-15T07:23:13.464Z,18.71
2023-05-15T07:25:40.032Z,18.88
2023-05-15T07:28:06.594Z,19.06
2023-05-15T07:30:33.338Z,18.76
2023-05-15T07:32:59.951Z,19.17
2023-05-15T07:35:26.802Z,19.17
2023-05-15T07:37:53.602Z,19.51
2023-05-15T07:40:20.277Z,19.67
2023-05-15T07:42:47.238Z,19.85
2023-05-15T07:45:13.965Z,19.81
2023-05-15T07:47:47.442Z,20.06
2023-05-15T07:50:14.674Z,20.20
2023-05-15T07:52:42.306Z,20.06
2023-05-15T07:55:12.931Z,19.68
2023-05-15T07:57:40.116Z,20.41
2023-05-15T08:00:11.401Z,20.49
2023-05-15T08:02:38.083Z,20.27
2023-05-15T08:05:05.909Z,20.59
2023-05-15T08:07:33.835Z,20.80
2023-05-15T08:10:00.946Z,20.93
2023-05-15T08:12:27.578Z,21.12
2023-05-15T08:14:55.299Z,21.28
2023-05-15T08:17:22.730Z,21.43
2023-05-15T08:19:49.797Z,21.15
2023-05-15T08:22:17.054Z,21.55
2023-05-15T08:24:43.707Z,21.36
2023-05-15T08:27:10.487Z,21.62
2023-05-15T08:29:39.359Z,21.52
2023-05-15T08:32:07.910Z,21.38
2023-05-15T08:34:34.661Z,21.49
2023-05-15T08:37:01.283Z,21.77
2023-05-15T08:39:28.020Z,21.65
2023-05-15T08:42:00.871Z,21.63
2023-05-15T08:44:28.177Z,21.59
2023-05-15T08:46:54.963Z,21.81
2023-05-15T08:50:17.963Z,22.17
2023-05-15T08:55:32.511Z,21.50
2023-05-15T08:58:02.999Z,20.92
2023-05-15T09:00:33.431Z,22.64
2023-05-15T09:03:03.302Z,22.82
2023-05-15T09:05:35.676Z,22.34
2023-05-15T09:08:09.980Z,22.64
2023-05-15T09:10:44.418Z,22.81
2023-05-15T09:13:15.285Z,19.67
2023-05-15T09:15:43.124Z,21.68
2023-05-15T09:18:14.706Z,21.75
2023-05-15T09:20:41.748Z,22.74
2023-05-15T09:23:27.412Z,22.16
2023-05-15T09:26:00.189Z,22.31
2023-05-15T09:28:34.203Z,22.96
2023-05-15T09:31:06.450Z,22.74
2023-05-15T09:33:35.710Z,23.10
2023-05-15T09:36:04.360Z,23.00
2023-05-15T09:38:33.694Z,23.13
2023-05-15T09:41:06.256Z,23.17
2023-05-15T09:43:41.082Z,23.09
2023-05-15T09:46:14.101Z,22.91
2023-05-15T09:48:40.950Z,23.37
2023-05-15T09:51:16.143Z,23.49
2023-05-15T09:53:42.902Z,23.13
2023-05-15T09:56:10.704Z,23.39
2023-05-15T09:58:44.824Z,23.71
2023-05-15T10:01:12.342Z,23.62
2023-05-15T10:03:44.156Z,23.59
2023-05-15T10:06:18.301Z,23.67
2023-05-15T10:08:56.952Z,23.75
2023-05-15T10:11:25.203Z,23.75
2023-05-15T10:13:51.837Z,23.59
2023-05-15T10:16:21.602Z,23.93
2023-05-15T10:18:50.672Z,23.77
2023-05-15T10:21:19.634Z,24.13
2023-05-15T10:23:48.781Z,24.59
2023-05-15T10:28:57.922Z,25.04
2023-05-15T10:31:25.190Z,25.37
2023-05-15T10:33:52.920Z,25.47
2023-05-15T10:36:19.856Z,25.65
2023-05-15T10:38:47.882Z,25.51
2023-05-15T10:41:18.210Z,25.65
2023-05-15T10:43:45.991Z,25.61
2023-05-15T10:46:14.009Z,25.96
2023-05-15T10:48:40.861Z,26.80
2023-05-15T10:51:39.678Z,27.34
2023-05-15T10:54:06.524Z,28.61
2023-05-15T10:56:34.931Z,28.25
2023-05-15T10:59:09.946Z,28.33
2023-05-15T11:01:38.819Z,28.13
2023-05-15T11:04:09.735Z,28.77
2023-05-15T11:06:41.401Z,28.00
2023-05-15T11:09:29.285Z,27.39
2023-05-15T11:11:57.454Z,26.74
2023-05-15T11:14:28.685Z,26.34
2023-05-15T11:16:55.621Z,25.97
2023-05-15T11:19:22.927Z,25.93
2023-05-15T11:22:08.357Z,25.63
2023-05-15T11:24:58.057Z,25.59
2023-05-15T11:27:26.450Z,25.45
2023-05-15T11:30:08.878Z,25.48
2023-05-15T11:32:47.809Z,25.45
2023-05-15T11:35:31.041Z,24.17
2023-05-15T11:38:03.049Z,24.77
2023-05-15T11:40:43.843Z,24.77
2023-05-15T11:43:28.026Z,24.71
2023-05-15T11:46:15.233Z,24.55
2023-05-15T11:48:49.781Z,24.63
2023-05-15T11:51:19.558Z,24.45
2023-05-15T11:53:47.056Z,24.41
2023-05-15T11:56:21.837Z,24.23
2023-05-15T11:58:58.997Z,24.61
2023-05-15T12:01:26.186Z,24.64
2023-05-15T12:03:54.920Z,24.74
2023-05-15T12:06:22.919Z,24.79
2023-05-15T12:08:53.855Z,24.64
2023-05-15T12:11:24.626Z,24.22
2023-05-15T12:13:55.277Z,24.00
2023-05-15T12:16:28.442Z,23.66
2023-05-15T12:18:57.450Z,23.62
2023-05-15T12:21:26.985Z,23.71
2023-05-15T12:24:06.832Z,23.42
2023-05-15T12:26:35.229Z,23.23
2023-05-15T12:29:02.357Z,23.31
2023-05-15T12:31:29.547Z,22.91
2023-05-15T12:33:56.980Z,22.80
2023-05-15T12:36:23.659Z,23.01
2023-05-15T12:38:50.375Z,22.79
2023-05-15T12:41:17.220Z,22.91
2023-05-15T12:43:43.931Z,22.58
2023-05-15T12:46:13.514Z,22.29
2023-05-15T12:48:42.250Z,22.47
2023-05-15T12:51:09.123Z,22.71
2023-05-15T12:53:36.478Z,22.74
2023-05-15T12:56:04.785Z,22.32
2023-05-15T12:58:31.685Z,22.50
2023-05-15T13:00:58.998Z,22.38
2023-05-15T13:03:26.676Z,22.66
2023-05-15T13:05:53.524Z,22.52
2023-05-15T13:08:20.499Z,22.34
2023-05-15T13:10:47.814Z,22.06
2023-05-15T13:13:15.332Z,22.49
2023-05-15T13:15:45.907Z,22.63
2023-05-15T13:18:17.454Z,22.49
2023-05-15T13:20:49.969Z,22.10
2023-05-15T13:23:19.293Z,22.41
2023-05-15T13:25:46.096Z,22.09
2023-05-15T13:28:13.588Z,22.27
2023-05-15T13:30:43.884Z,22.35
2023-05-15T13:33:12.574Z,22.77
2023-05-15T13:35:40.028Z,22.47
2023-05-15T13:38:08.709Z,23.24
2023-05-15T13:40:37.569Z,23.20
2023-05-15T13:43:04.306Z,23.50
2023-05-15T13:45:31.033Z,23.40
2023-05-15T13:47:57.623Z,24.74
2023-05-15T13:50:24.598Z,25.07
2023-05-15T13:52:57.442Z,25.54
2023-05-15T13:55:25.823Z,26.76
2023-05-15T13:57:53.387Z,28.58
2023-05-15T14:00:20.652Z,29.92
2023-05-15T14:02:47.463Z,31.63
2023-05-15T14:05:16.019Z,33.58
2023-05-15T14:07:42.816Z,33.70
2023-05-15T14:10:10.849Z,35.64
2023-05-15T14:12:37.895Z,35.08
2023-05-15T14:15:04.814Z,35.79
2023-05-15T14:17:31.647Z,35.66
2023-05-15T14:19:58.380Z,33.95
2023-05-15T14:22:25.342Z,32.80
2023-05-15T14:24:53.391Z,33.72
2023-05-15T14:27:20.179Z,34.86
2023-05-15T14:29:49.350Z,35.51
2023-05-15T14:32:16.913Z,36.48
2023-05-15T14:34:43.956Z,37.14
2023-05-15T14:37:10.729Z,35.78
2023-05-15T14:39:37.421Z,35.36
2023-05-15T14:42:04.373Z,35.39
2023-05-15T14:44:30.980Z,32.54
2023-05-15T14:47:12.927Z,31.42
2023-05-15T14:49:40.029Z,31.18
2023-05-15T14:52:09.304Z,30.18
2023-05-15T14:54:36.679Z,27.78
2023-05-15T14:57:04.162Z,27.72
2023-05-15T14:59:30.937Z,27.51
2023-05-15T15:01:57.659Z,26.12
2023-05-15T15:04:24.470Z,26.14
2023-05-15T15:06:51.122Z,26.54
2023-05-15T15:09:20.175Z,26.33
2023-05-15T15:11:47.646Z,26.39
2023-05-15T15:14:14.354Z,25.51
2023-05-15T15:16:41.017Z,25.64
2023-05-15T15:19:07.767Z,25.66
2023-05-15T15:21:34.849Z,26.62
2023-05-15T15:24:01.706Z,26.77
2023-05-15T15:26:31.775Z,28.40
2023-05-15T15:29:01.172Z,29.25
2023-05-15T15:31:31.044Z,29.78
2023-05-15T15:33:58.194Z,30.88
2023-05-15T15:36:25.400Z,31.08
2023-05-15T15:38:52.488Z,31.97
2023-05-15T15:41:21.310Z,31.38
2023-05-15T15:43:48.139Z,32.07
2023-05-15T15:46:15.011Z,32.04
2023-05-15T15:48:41.954Z,32.29
2023-05-15T15:51:08.626Z,32.77
2023-05-15T15:53:35.326Z,32.89
2023-05-15T15:56:02.155Z,32.73
2023-05-15T15:58:29.763Z,32.58
2023-05-15T16:00:57.283Z,31.48
2023-05-15T16:03:24.187Z,29.04
2023-05-15T16:05:51.944Z,29.09
2023-05-15T16:08:18.826Z,28.80
2023-05-15T16:10:45.512Z,27.96
2023-05-15T16:13:12.158Z,28.94
2023-05-15T16:15:38.753Z,29.60
2023-05-15T16:18:05.398Z,30.51
2023-05-15T16:20:34.272Z,29.05
2023-05-15T16:23:01.953Z,28.06
2023-05-15T16:25:28.623Z,26.66
2023-05-15T16:27:55.258Z,25.70
2023-05-15T16:30:26.345Z,24.74
2023-05-15T16:32:57.584Z,24.70
2023-05-15T16:35:24.617Z,24.43
2023-05-15T16:37:51.405Z,24.69
2023-05-15T16:40:18.008Z,23.63
2023-05-15T16:42:46.178Z,23.74
2023-05-15T16:45:12.918Z,23.42
2023-05-15T16:47:39.709Z,23.16
2023-05-15T16:50:07.659Z,22.92
2023-05-15T16:52:34.502Z,22.66
2023-05-15T16:55:01.178Z,22.64
2023-05-15T16:57:27.829Z,22.47
2023-05-15T16:59:54.570Z,22.54
2023-05-15T17:02:21.159Z,22.85
2023-05-15T17:04:47.768Z,22.38
2023-05-15T17:07:14.353Z,22.26
2023-05-15T17:09:43.169Z,22.24
2023-05-15T17:12:09.923Z,22.39
2023-05-15T17:14:36.575Z,22.39
2023-05-15T17:17:03.197Z,21.66
2023-05-15T17:19:29.768Z,21.59
2023-05-15T17:21:56.292Z,21.36
2023-05-15T17:24:23.076Z,21.09
2023-05-15T17:26:49.658Z,21.29
2023-05-15T17:29:16.481Z,20.61
2023-05-15T17:31:43.354Z,20.65
2023-05-15T17:34:10.110Z,20.42
2023-05-15T17:36:36.911Z,20.21
2023-05-15T17:39:03.960Z,19.18
2023-05-15T17:41:30.657Z,20.37
2023-05-15T17:43:57.352Z,20.34
2023-05-15T17:46:24.042Z,19.65
2023-05-15T17:48:50.903Z,19.79
2023-05-15T17:51:17.469Z,19.15
2023-05-15T17:53:44.035Z,19.33
2023-05-15T17:56:10.998Z,19.27
2023-05-15T17:58:40.927Z,19.45
2023-05-15T18:01:07.701Z,18.81
2023-05-15T18:03:34.453Z,19.20
2023-05-15T18:06:01.233Z,19.32
2023-05-15T18:08:27.982Z,18.99
2023-05-15T18:10:54.623Z,18.92
2023-05-15T18:13:21.253Z,18.77
2023-05-15T18:15:49.033Z,18.65
2023-05-15T18:18:15.706Z,18.51
2023-05-15T18:20:42.731Z,18.43
2023-05-15T18:23:09.356Z,18.10
2023-05-15T18:25:37.125Z,17.43
2023-05-15T18:28:06.837Z,17.42
2023-05-15T18:30:37.846Z,16.41
2023-05-15T18:33:04.534Z,16.20
2023-05-15T18:35:31.115Z,16.70
2023-05-15T18:37:58.090Z,16.76
2023-05-15T18:40:27.672Z,16.62
2023-05-15T18:42:55.540Z,16.51
2023-05-15T18:45:22.809Z,16.23
2023-05-15T18:47:49.893Z,16.14
2023-05-15T18:50:19.190Z,15.80
2023-05-15T18:52:49.126Z,15.63
2023-05-15T18:55:16.035Z,15.79
2023-05-15T18:57:47.473Z,15.86
2023-05-15T19:00:18.929Z,15.46
2023-05-15T19:02:50.716Z,15.48
2023-05-15T19:05:17.559Z,14.55
2023-05-15T19:07:45.351Z,15.42
2023-05-15T19:10:12.219Z,15.47
2023-05-15T19:12:38.895Z,15.57
2023-05-15T19:15:06.100Z,15.36
2023-05-15T19:17:32.833Z,15.51
2023-05-15T19:19:59.412Z,14.53
2023-05-15T19:22:26.001Z,15.08
2023-05-15T19:24:52.655Z,14.92
2023-05-15T19:27:22.754Z,14.93
2023-05-15T19:29:49.929Z,14.61
2023-05-15T19:32:16.527Z,15.04
2023-05-15T19:34:43.221Z,15.07
2023-05-15T19:37:10.697Z,14.83
2023-05-15T19:39:37.333Z,14.47
2023-05-15T19:42:04.003Z,14.72
2023-05-15T19:44:30.543Z,14.68
2023-05-15T19:46:57.206Z,14.83
2023-05-15T19:49:23.950Z,14.56
2023-05-15T19:51:50.734Z,14.08
2023-05-15T19:54:17.438Z,14.40
2023-05-15T19:56:44.279Z,14.06
2023-05-15T19:59:11.087Z,14.24
2023-05-15T20:01:37.925Z,14.20
2023-05-15T20:04:04.672Z,14.38
2023-05-15T20:06:31.414Z,13.91
2023-05-15T20:08:57.997Z,13.93
2023-05-15T20:11:24.657Z,14.26
2023-05-15T20:13:51.814Z,14.14
2023-05-15T20:16:18.808Z,14.25
2023-05-15T20:18:48.023Z,14.18
2023-05-15T20:21:15.895Z,13.86
2023-05-15T20:23:42.530Z,13.84
2023-05-15T20:26:09.070Z,13.44
2023-05-15T20:28:36.118Z,13.85
2023-05-15T20:31:03.091Z,13.45
2023-05-15T20:33:30.098Z,13.83
2023-05-15T20:35:57.085Z,13.75
2023-05-15T20:38:25.650Z,13.63
2023-05-15T20:40:53.096Z,13.33
2023-05-15T20:43:20.244Z,13.28
2023-05-15T20:45:46.834Z,13.14
2023-05-15T20:48:14.008Z,13.43
2023-05-15T20:50:41.276Z,13.48
2023-05-15T20:53:08.759Z,13.20
2023-05-15T20:55:35.692Z,13.14
2023-05-15T20:58:02.460Z,12.96
2023-05-15T21:00:29.142Z,13.25
2023-05-15T21:02:55.891Z,13.15
2023-05-15T21:05:22.608Z,12.91
2023-05-15T21:07:49.221Z,13.37
2023-05-15T21:10:15.948Z,13.43
2023-05-15T21:12:42.805Z,13.24
2023-05-15T21:15:09.922Z,13.44
2023-05-15T21:17:36.594Z,12.73
2023-05-15T21:20:04.530Z,12.83
2023-05-15T21:22:31.186Z,12.43
2023-05-15T21:24:57.966Z,12.69
2023-05-15T21:27:24.657Z,12.77
2023-05-15T21:29:51.660Z,12.70
2023-05-15T21:32:18.304Z,13.05
2023-05-15T21:34:44.949Z,13.17
2023-05-15T21:37:11.515Z,12.93
2023-05-15T21:39:38.092Z,13.23
2023-05-15T21:42:05.066Z,13.01
2023-05-15T21:44:31.672Z,12.71
2023-05-15T21:46:58.408Z,13.11
2023-05-15T21:49:25.119Z,12.80
2023-05-15T21:51:51.720Z,12.50
2023-05-15T21:54:18.428Z,12.89
2023-05-15T21:56:45.077Z,12.57
2023-05-15T21:59:14.226Z,12.99
2023-05-15T22:01:41.558Z,12.73
2023-05-15T22:04:08.343Z,12.81
2023-05-15T22:06:35.008Z,13.00
2023-05-15T22:09:01.868Z,12.59
2023-05-15T22:11:28.786Z,12.62
2023-05-15T22:13:55.561Z,12.98
2023-05-15T22:16:22.283Z,13.13
2023-05-15T22:18:49.015Z,12.85
2023-05-15T22:21:16.217Z,12.73
2023-05-15T22:23:43.129Z,12.89
2023-05-15T22:26:09.854Z,13.13
2023-05-15T22:28:36.785Z,13.09
2023-05-15T22:31:04.493Z,13.04
2023-05-15T22:33:31.219Z,12.88
2023-05-15T22:35:57.825Z,12.43
2023-05-15T22:38:24.644Z,12.38
2023-05-15T22:40:51.952Z,12.54
2023-05-15T22:43:18.694Z,13.00
2023-05-15T22:45:45.375Z,13.05
2023-05-15T22:48:12.325Z,12.91
2023-05-15T22:50:38.991Z,13.06
2023-05-15T22:53:05.684Z,12.62
2023-05-15T22:55:32.240Z,13.07
2023-05-15T22:57:58.766Z,12.59
2023-05-15T23:00:25.791Z,12.66
2023-05-15T23:02:55.375Z,12.43
2023-05-15T23:05:22.194Z,12.87
2023-05-15T23:07:48.958Z,12.94
2023-05-15T23:10:15.720Z,13.02
2023-05-15T23:12:42.318Z,12.98
2023-05-15T23:15:10.600Z,12.51
2023-05-15T23:17:37.395Z,12.47
2023-05-15T23:20:07.063Z,12.53
2023-05-15T23:22:33.688Z,12.60
2023-05-15T23:25:00.237Z,12.17
2023-05-15T23:27:26.878Z,12.57
2023-05-15T23:29:54.072Z,12.63
2023-05-15T23:32:20.743Z,12.71
2023-05-15T23:34:47.400Z,12.59
2023-05-15T23:37:14.282Z,12.76
2023-05-15T23:39:40.883Z,12.89
2023-05-15T23:42:10.109Z,12.90
2023-05-15T23:44:37.018Z,12.95
2023-05-15T23:47:04.483Z,12.52
2023-05-15T23:49:32.999Z,13.00
2023-05-15T23:51:59.787Z,12.68
2023-05-15T23:54:26.430Z,13.20
2023-05-15T23:56:52.959Z,13.27
2023-05-15T23:59:19.580Z,13.06
